Time;durP1;ratioP1;P1;durP2;ratioP2;P2;SDS_P1;SDS_P2;PMS_P1;PMS_P2;Temp;Humidity;BMP_temperature;BMP_pressure;BME280_temperature;BME280_humidity;BME280_pressure;Samples;Min_cycle;Max_cycle;Signal;HPM_P1;HPM_P2
2023/04/27 00:01:28;;;;;;;29.40;9.63;;;;;;;;;;5046830;28;20377;-63
2023/04/27 00:03:53;;;;;;;34.67;10.47;;;;;;;;;;5044400;28;20489;-63
2023/04/27 00:06:19;;;;;;;35.37;10.73;;;;;;;;;;5046863;28;20048;-63
2023/04/27 00:08:44;;;;;;;31.80;10.67;;;;;;;;;;5049070;28;20041;-63
2023/04/27 00:11:09;;;;;;;31.30;9.70;;;;;;;;;;5052675;28;20459;-64
2023/04/27 00:13:35;;;;;;;27.40;9.97;;;;;;;;;;5051129;28;20029;-64
2023/04/27 00:16:02;;;;;;;27.50;9.50;;;;;;;;;;5050812;28;20016;-64
2023/04/27 00:18:27;;;;;;;33.77;10.30;;;;;;;;;;5051944;28;20017;-63
2023/04/27 00:20:53;;;;;;;31.90;10.63;;;;;;;;;;5052333;28;20445;-63
2023/04/27 00:23:18;;;;;;;32.77;10.33;;;;;;;;;;5049869;28;20032;-64
2023/04/27 00:25:43;;;;;;;32.27;10.60;;;;;;;;;;5051676;28;20416;-63
2023/04/27 00:28:08;;;;;;;29.07;9.53;;;;;;;;;;5048074;28;20021;-63
2023/04/27 00:30:34;;;;;;;28.13;9.77;;;;;;;;;;5045029;28;20029;-64
2023/04/27 00:33:00;;;;;;;27.17;9.63;;;;;;;;;;5046354;28;20021;-63
2023/04/27 00:35:25;;;;;;;33.57;9.43;;;;;;;;;;5051638;28;20096;-63
2023/04/27 00:37:52;;;;;;;30.93;10.37;;;;;;;;;;5052159;28;20013;-63
2023/04/27 00:40:19;;;;;;;24.77;9.27;;;;;;;;;;5050966;28;20013;-64
2023/04/27 00:42:44;;;;;;;26.43;9.37;;;;;;;;;;5051063;28;20029;-64
2023/04/27 00:45:10;;;;;;;28.67;10.60;;;;;;;;;;5050781;28;20033;-64
2023/04/27 00:47:35;;;;;;;29.97;9.47;;;;;;;;;;5051554;28;20420;-64
2023/04/27 00:50:00;;;;;;;28.97;10.40;;;;;;;;;;5051488;28;20029;-64
2023/04/27 00:52:26;;;;;;;29.50;10.30;;;;;;;;;;5051619;28;20168;-63
2023/04/27 00:54:51;;;;;;;28.17;9.90;;;;;;;;;;5051803;28;20028;-64
2023/04/27 00:57:17;;;;;;;29.63;9.70;;;;;;;;;;5050969;28;20025;-64
2023/04/27 00:59:42;;;;;;;31.60;9.87;;;;;;;;;;5050974;28;20023;-64
2023/04/27 01:02:08;;;;;;;33.27;9.63;;;;;;;;;;5059166;22;21293;-67
2023/04/27 01:04:35;;;;;;;24.30;9.53;;;;;;;;;;5050618;28;20495;-67
2023/04/27 01:07:01;;;;;;;28.33;9.47;;;;;;;;;;5043300;28;20029;-67
2023/04/27 01:09:26;;;;;;;27.87;9.57;;;;;;;;;;5049913;28;20507;-67
2023/04/27 01:11:52;;;;;;;28.70;9.47;;;;;;;;;;5050784;28;20025;-67
2023/04/27 01:14:17;;;;;;;24.80;9.57;;;;;;;;;;5049160;28;20029;-67
2023/04/27 01:16:43;;;;;;;36.27;10.13;;;;;;;;;;5047538;28;20033;-67
2023/04/27 01:19:08;;;;;;;29.40;9.77;;;;;;;;;;5051083;28;20024;-67
2023/04/27 01:21:34;;;;;;;27.93;9.43;;;;;;;;;;5049449;28;20396;-67
2023/04/27 01:23:59;;;;;;;26.80;8.97;;;;;;;;;;5051542;28;20025;-67
2023/04/27 01:26:24;;;;;;;26.07;9.23;;;;;;;;;;5051335;28;20032;-67
2023/04/27 01:28:50;;;;;;;29.37;9.53;;;;;;;;;;5048813;28;20025;-67
2023/04/27 01:31:15;;;;;;;28.03;9.97;;;;;;;;;;5047341;28;20036;-67
2023/04/27 01:33:40;;;;;;;28.67;10.80;;;;;;;;;;5052087;28;20070;-67
2023/04/27 01:36:06;;;;;;;28.17;9.30;;;;;;;;;;5051066;28;20091;-67
2023/04/27 01:38:32;;;;;;;27.43;8.77;;;;;;;;;;5054009;28;20035;-67
2023/04/27 01:41:08;;;;;;;28.60;9.80;;;;;;;;;;5052912;28;20096;-67
2023/04/27 01:43:33;;;;;;;36.53;9.50;;;;;;;;;;5054343;28;20465;-67
2023/04/27 01:46:06;;;;;;;28.13;9.50;;;;;;;;;;5050942;28;20017;-67
2023/04/27 01:48:32;;;;;;;27.13;9.60;;;;;;;;;;5051859;28;20476;-67
2023/04/27 01:50:57;;;;;;;26.87;8.97;;;;;;;;;;5054401;28;20035;-67
2023/04/27 01:53:22;;;;;;;33.93;9.93;;;;;;;;;;5053978;28;20064;-67
2023/04/27 01:55:48;;;;;;;30.67;9.60;;;;;;;;;;5051492;28;20361;-67
2023/04/27 01:58:13;;;;;;;31.20;9.80;;;;;;;;;;5053450;28;20057;-67
2023/04/27 02:00:38;;;;;;;35.30;10.07;;;;;;;;;;5053003;28;20125;-67
2023/04/27 02:03:03;;;;;;;39.87;11.43;;;;;;;;;;5053831;28;20036;-67
2023/04/27 02:05:29;;;;;;;36.43;11.83;;;;;;;;;;5054086;28;20488;-67
2023/04/27 02:07:54;;;;;;;41.07;12.40;;;;;;;;;;5053855;28;20465;-67
2023/04/27 02:10:21;;;;;;;51.87;12.17;;;;;;;;;;5046426;28;20022;-67
2023/04/27 02:12:46;;;;;;;38.43;11.70;;;;;;;;;;5053739;28;20052;-68
2023/04/27 02:15:11;;;;;;;34.57;10.90;;;;;;;;;;5053371;28;20064;-68
2023/04/27 02:17:37;;;;;;;39.97;12.30;;;;;;;;;;5051015;28;20526;-68
2023/04/27 02:20:05;;;;;;;35.93;11.17;;;;;;;;;;5052391;28;20021;-68
2023/04/27 02:22:30;;;;;;;43.60;11.50;;;;;;;;;;5053979;28;20036;-68
2023/04/27 02:24:56;;;;;;;38.97;11.90;;;;;;;;;;5054102;28;20420;-68
2023/04/27 02:27:21;;;;;;;47.20;13.00;;;;;;;;;;5054433;28;20025;-68
2023/04/27 02:29:46;;;;;;;44.53;14.13;;;;;;;;;;5050378;28;20070;-68
2023/04/27 02:32:12;;;;;;;49.50;14.73;;;;;;;;;;5052030;28;20032;-68
2023/04/27 02:34:37;;;;;;;42.83;13.37;;;;;;;;;;5051860;28;20435;-67
2023/04/27 02:37:02;;;;;;;51.40;14.13;;;;;;;;;;5053422;28;20021;-68
2023/04/27 02:39:27;;;;;;;51.03;13.67;;;;;;;;;;5050810;28;20108;-67
2023/04/27 02:41:53;;;;;;;50.90;14.57;;;;;;;;;;5051732;28;20411;-68
2023/04/27 02:44:18;;;;;;;47.90;14.97;;;;;;;;;;5053251;28;20421;-69
2023/04/27 02:46:43;;;;;;;52.43;14.57;;;;;;;;;;5046654;28;20473;-68
2023/04/27 02:49:09;;;;;;;51.50;14.97;;;;;;;;;;5053648;28;20082;-68
2023/04/27 02:51:34;;;;;;;47.53;15.20;;;;;;;;;;5049075;28;20037;-67
2023/04/27 02:53:59;;;;;;;43.23;13.60;;;;;;;;;;5049241;28;20020;-67
2023/04/27 02:56:24;;;;;;;54.17;15.23;;;;;;;;;;5052491;28;20365;-67
2023/04/27 02:58:50;;;;;;;48.27;15.37;;;;;;;;;;5052958;28;20107;-67
2023/04/27 03:01:18;;;;;;;55.83;16.40;;;;;;;;;;5050553;28;20091;-67
2023/04/27 03:03:44;;;;;;;56.60;16.50;;;;;;;;;;5050822;28;20045;-68
2023/04/27 03:06:09;;;;;;;51.17;15.67;;;;;;;;;;5048207;28;20039;-68
2023/04/27 03:08:34;;;;;;;57.03;16.03;;;;;;;;;;5052758;28;20024;-67
2023/04/27 03:11:00;;;;;;;51.20;16.90;;;;;;;;;;5052090;28;20040;-67
2023/04/27 03:13:25;;;;;;;50.17;16.30;;;;;;;;;;5052146;28;20032;-67
2023/04/27 03:15:50;;;;;;;50.87;15.33;;;;;;;;;;5048829;28;20079;-68
2023/04/27 03:18:16;;;;;;;52.83;15.63;;;;;;;;;;5052731;28;20603;-67
2023/04/27 03:20:41;;;;;;;51.90;15.67;;;;;;;;;;5052001;28;20032;-67
2023/04/27 03:23:06;;;;;;;53.97;15.90;;;;;;;;;;5051571;28;20016;-67
2023/04/27 03:25:31;;;;;;;54.37;17.00;;;;;;;;;;5052647;28;20403;-68
2023/04/27 03:27:57;;;;;;;55.73;17.53;;;;;;;;;;5051691;28;20025;-68
2023/04/27 03:30:22;;;;;;;50.07;17.63;;;;;;;;;;5050647;28;20032;-68
2023/04/27 03:32:47;;;;;;;56.97;17.10;;;;;;;;;;5052037;28;20037;-68
2023/04/27 03:35:13;;;;;;;49.13;18.27;;;;;;;;;;5048889;28;20036;-68
2023/04/27 03:37:38;;;;;;;59.33;17.77;;;;;;;;;;5051809;28;20483;-68
2023/04/27 03:40:07;;;;;;;65.50;20.50;;;;;;;;;;5050405;28;20111;-67
2023/04/27 03:42:32;;;;;;;54.87;18.77;;;;;;;;;;5051264;28;20465;-67
2023/04/27 03:44:57;;;;;;;60.77;19.67;;;;;;;;;;5051229;28;20029;-67
2023/04/27 03:47:23;;;;;;;59.93;20.37;;;;;;;;;;5050305;28;20035;-67
2023/04/27 03:49:48;;;;;;;58.03;19.27;;;;;;;;;;5051712;28;20055;-69
2023/04/27 03:52:13;;;;;;;62.70;21.00;;;;;;;;;;5052565;28;20498;-69
2023/04/27 03:54:39;;;;;;;54.43;20.77;;;;;;;;;;5050780;28;20139;-69
2023/04/27 03:57:04;;;;;;;63.67;21.03;;;;;;;;;;5045782;28;20033;-68
2023/04/27 03:59:29;;;;;;;62.80;21.13;;;;;;;;;;5049453;28;20484;-68
2023/04/27 04:01:56;;;;;;;57.40;20.20;;;;;;;;;;5050907;28;20040;-69
2023/04/27 04:04:21;;;;;;;59.67;21.20;;;;;;;;;;5049357;28;20040;-68
2023/04/27 04:06:47;;;;;;;66.67;20.97;;;;;;;;;;5050870;28;20025;-68
2023/04/27 04:09:12;;;;;;;58.33;21.23;;;;;;;;;;5052467;28;20025;-69
2023/04/27 04:11:37;;;;;;;59.03;20.13;;;;;;;;;;5047443;28;20025;-69
2023/04/27 04:14:03;;;;;;;59.90;20.47;;;;;;;;;;5047209;28;20526;-68
2023/04/27 04:16:28;;;;;;;65.13;20.43;;;;;;;;;;5053045;28;20045;-69
2023/04/27 04:18:53;;;;;;;58.07;21.13;;;;;;;;;;5052411;28;20056;-68
2023/04/27 04:21:18;;;;;;;66.60;20.23;;;;;;;;;;5051931;28;20076;-68
2023/04/27 04:23:44;;;;;;;53.53;19.73;;;;;;;;;;5052907;28;20646;-67
2023/04/27 04:26:10;;;;;;;59.70;19.67;;;;;;;;;;5051073;28;20104;-67
2023/04/27 04:28:36;;;;;;;57.60;19.77;;;;;;;;;;5038138;28;20025;-67
2023/04/27 04:31:01;;;;;;;55.63;19.23;;;;;;;;;;5052101;28;20087;-68
2023/04/27 04:33:26;;;;;;;58.40;20.23;;;;;;;;;;5050650;28;20105;-67
2023/04/27 04:35:52;;;;;;;58.43;20.50;;;;;;;;;;5042573;28;20040;-68
2023/04/27 04:38:17;;;;;;;55.20;19.47;;;;;;;;;;5052637;28;20025;-67
2023/04/27 04:40:43;;;;;;;55.57;18.60;;;;;;;;;;5041967;28;20017;-68
2023/04/27 04:43:08;;;;;;;54.73;18.33;;;;;;;;;;5040004;28;20040;-68
2023/04/27 04:45:33;;;;;;;57.10;18.67;;;;;;;;;;5050072;28;20021;-67
2023/04/27 04:48:00;;;;;;;47.27;17.30;;;;;;;;;;5052765;28;20032;-67
2023/04/27 04:50:25;;;;;;;52.03;18.30;;;;;;;;;;5040816;28;20027;-66
2023/04/27 04:52:50;;;;;;;51.77;18.17;;;;;;;;;;5052946;28;20480;-66
2023/04/27 04:55:16;;;;;;;40.40;16.53;;;;;;;;;;5048186;28;20362;-67
2023/04/27 04:57:41;;;;;;;31.37;12.87;;;;;;;;;;5050905;28;20014;-66
2023/04/27 05:00:11;;;;;;;22.73;10.23;;;;;;;;;;5050905;28;20480;-66
2023/04/27 05:02:36;;;;;;;16.57;8.67;;;;;;;;;;5051685;28;20124;-66
2023/04/27 05:05:02;;;;;;;17.40;8.07;;;;;;;;;;5050641;28;20040;-66
2023/04/27 05:07:27;;;;;;;14.90;7.90;;;;;;;;;;5051230;28;20090;-65
2023/04/27 05:09:53;;;;;;;14.73;8.07;;;;;;;;;;5051607;28;20472;-65
2023/04/27 05:12:18;;;;;;;15.50;6.73;;;;;;;;;;5038099;28;20488;-65
2023/04/27 05:14:43;;;;;;;14.43;6.40;;;;;;;;;;5052668;28;20017;-64
2023/04/27 05:17:08;;;;;;;13.57;6.07;;;;;;;;;;5055522;28;20465;-65
2023/04/27 05:19:34;;;;;;;11.57;6.10;;;;;;;;;;5042420;28;20026;-65
2023/04/27 05:21:59;;;;;;;14.53;6.77;;;;;;;;;;5050019;28;20484;-66
2023/04/27 05:24:25;;;;;;;16.17;6.70;;;;;;;;;;5055547;28;20021;-64
2023/04/27 05:26:51;;;;;;;14.40;7.00;;;;;;;;;;5056292;28;20021;-64
2023/04/27 05:29:16;;;;;;;15.40;6.60;;;;;;;;;;5044174;28;20028;-64
2023/04/27 05:31:42;;;;;;;15.83;6.27;;;;;;;;;;5045063;28;20139;-64
2023/04/27 05:34:08;;;;;;;14.37;7.00;;;;;;;;;;5041037;28;20032;-65
2023/04/27 05:36:34;;;;;;;10.93;5.80;;;;;;;;;;5049249;28;20021;-64
2023/04/27 05:39:00;;;;;;;9.73;5.67;;;;;;;;;;5039906;28;20039;-64
2023/04/27 05:41:25;;;;;;;10.27;6.20;;;;;;;;;;5041060;28;20481;-64
2023/04/27 05:43:52;;;;;;;11.13;5.60;;;;;;;;;;5049620;28;20366;-64
2023/04/27 05:46:17;;;;;;;15.03;5.83;;;;;;;;;;5041052;28;20039;-63
2023/04/27 05:48:43;;;;;;;14.20;5.50;;;;;;;;;;5050902;28;21106;-64
2023/04/27 05:51:08;;;;;;;10.33;5.33;;;;;;;;;;5053151;28;20031;-64
2023/04/27 05:53:33;;;;;;;13.70;5.20;;;;;;;;;;5055701;28;20101;-64
2023/04/27 05:55:59;;;;;;;12.63;5.37;;;;;;;;;;5055502;28;20024;-65
2023/04/27 05:58:25;;;;;;;13.23;6.00;;;;;;;;;;5051459;28;20028;-64
2023/04/27 06:00:51;;;;;;;13.17;5.50;;;;;;;;;;5055786;28;20017;-64
2023/04/27 06:03:16;;;;;;;9.87;5.40;;;;;;;;;;5054043;28;20505;-63
2023/04/27 06:05:41;;;;;;;12.03;5.37;;;;;;;;;;5054967;28;20430;-64
2023/04/27 06:08:07;;;;;;;10.63;5.30;;;;;;;;;;5054717;28;20419;-64
2023/04/27 06:10:32;;;;;;;13.00;5.03;;;;;;;;;;5055204;28;20024;-64
2023/04/27 06:12:57;;;;;;;9.43;5.10;;;;;;;;;;5054333;28;20075;-64
2023/04/27 06:15:23;;;;;;;10.03;5.43;;;;;;;;;;5054750;28;20020;-64
2023/04/27 06:17:48;;;;;;;8.70;5.10;;;;;;;;;;5054122;28;20075;-64
2023/04/27 06:20:14;;;;;;;11.38;5.47;;;;;;;;;;5055319;28;20014;-64
2023/04/27 06:22:39;;;;;;;16.53;5.47;;;;;;;;;;5054480;28;20021;-64
2023/04/27 06:25:05;;;;;;;12.13;5.63;;;;;;;;;;5054924;28;20116;-64
2023/04/27 06:27:30;;;;;;;12.20;6.25;;;;;;;;;;5053586;28;20029;-64
2023/04/27 06:29:56;;;;;;;9.75;5.22;;;;;;;;;;5049026;28;20087;-63
2023/04/27 06:32:21;;;;;;;9.45;4.78;;;;;;;;;;5035218;28;20021;-63
2023/04/27 06:34:47;;;;;;;12.38;4.82;;;;;;;;;;5048202;28;20036;-64
2023/04/27 06:37:14;;;;;;;11.32;5.07;;;;;;;;;;5054835;28;20066;-63
2023/04/27 06:39:40;;;;;;;13.50;4.85;;;;;;;;;;5054564;28;20017;-63
2023/04/27 06:42:05;;;;;;;8.88;4.63;;;;;;;;;;5053882;28;20517;-64
2023/04/27 06:44:30;;;;;;;13.40;5.28;;;;;;;;;;5054623;28;20077;-64
2023/04/27 06:46:56;;;;;;;11.15;5.65;;;;;;;;;;5054751;28;20024;-64
2023/04/27 06:49:21;;;;;;;8.23;4.68;;;;;;;;;;5054741;28;20104;-65
2023/04/27 06:51:47;;;;;;;10.10;4.15;;;;;;;;;;5054571;28;20025;-65
2023/04/27 06:54:12;;;;;;;9.00;4.60;;;;;;;;;;5054576;28;20025;-64
2023/04/27 06:56:38;;;;;;;8.98;4.45;;;;;;;;;;5052636;28;20025;-64
2023/04/27 06:59:03;;;;;;;7.80;4.00;;;;;;;;;;5054415;28;20104;-63
2023/04/27 07:01:28;;;;;;;10.45;3.90;;;;;;;;;;5054373;28;20560;-62
2023/04/27 07:03:54;;;;;;;11.48;3.80;;;;;;;;;;5054056;28;20382;-62
2023/04/27 07:06:19;;;;;;;7.10;3.67;;;;;;;;;;5054145;28;20013;-63
2023/04/27 07:08:45;;;;;;;7.93;3.45;;;;;;;;;;5054228;28;20039;-63
2023/04/27 07:11:11;;;;;;;8.00;3.50;;;;;;;;;;5053182;28;20074;-64
2023/04/27 07:13:36;;;;;;;6.70;3.63;;;;;;;;;;5052992;28;20021;-63
2023/04/27 07:16:01;;;;;;;7.68;3.92;;;;;;;;;;5054073;28;20028;-63
2023/04/27 07:18:27;;;;;;;9.05;3.58;;;;;;;;;;5054168;28;20025;-63
2023/04/27 07:20:53;;;;;;;9.73;3.38;;;;;;;;;;5054235;28;20044;-63
2023/04/27 07:23:18;;;;;;;10.43;2.53;;;;;;;;;;5054250;28;20020;-63
2023/04/27 07:25:45;;;;;;;7.18;2.42;;;;;;;;;;5053322;28;20021;-63
2023/04/27 07:28:10;;;;;;;6.60;2.22;;;;;;;;;;5053913;28;20499;-63
2023/04/27 07:30:35;;;;;;;6.78;2.22;;;;;;;;;;5053962;28;20021;-64
2023/04/27 07:33:01;;;;;;;4.57;2.15;;;;;;;;;;5053898;28;20487;-63
2023/04/27 07:35:26;;;;;;;5.68;2.55;;;;;;;;;;5052618;28;20119;-63
2023/04/27 07:37:52;;;;;;;6.47;2.92;;;;;;;;;;5053747;28;20040;-63
2023/04/27 07:40:17;;;;;;;6.05;2.10;;;;;;;;;;5053830;28;20067;-65
2023/04/27 07:42:42;;;;;;;5.57;2.15;;;;;;;;;;5052481;28;20436;-64
2023/04/27 07:45:08;;;;;;;6.80;2.40;;;;;;;;;;5053879;28;20024;-64
2023/04/27 07:47:33;;;;;;;9.55;2.65;;;;;;;;;;5053626;28;20048;-63
2023/04/27 07:49:59;;;;;;;4.35;1.30;;;;;;;;;;5053705;28;20017;-64
2023/04/27 07:52:24;;;;;;;5.63;1.92;;;;;;;;;;5053508;28;20398;-63
2023/04/27 07:54:50;;;;;;;6.93;2.10;;;;;;;;;;5053114;28;20017;-63
2023/04/27 07:57:16;;;;;;;7.90;2.00;;;;;;;;;;5052257;28;20029;-63
2023/04/27 07:59:41;;;;;;;6.35;2.28;;;;;;;;;;5052465;28;20020;-64
2023/04/27 08:02:07;;;;;;;6.30;1.95;;;;;;;;;;5052652;28;20392;-63
2023/04/27 08:04:32;;;;;;;6.43;2.00;;;;;;;;;;5053103;28;20476;-63
2023/04/27 08:06:57;;;;;;;7.22;1.60;;;;;;;;;;5048200;28;20021;-63
2023/04/27 08:09:22;;;;;;;6.13;1.80;;;;;;;;;;5042105;28;20047;-63
2023/04/27 08:11:48;;;;;;;5.95;1.75;;;;;;;;;;5051997;28;20540;-63
2023/04/27 08:14:13;;;;;;;5.20;1.77;;;;;;;;;;5051666;28;20126;-63
2023/04/27 08:16:42;;;;;;;7.97;1.95;;;;;;;;;;5052864;28;20009;-63
2023/04/27 08:19:10;;;;;;;5.95;1.90;;;;;;;;;;5052836;28;20028;-63
2023/04/27 08:21:36;;;;;;;4.80;1.70;;;;;;;;;;5050960;28;20036;-64
2023/04/27 08:24:01;;;;;;;6.13;1.70;;;;;;;;;;5052181;28;20025;-63
2023/04/27 08:26:27;;;;;;;3.95;1.70;;;;;;;;;;5051677;28;20040;-63
2023/04/27 08:28:52;;;;;;;8.65;1.90;;;;;;;;;;5052886;28;20091;-63
2023/04/27 08:31:17;;;;;;;5.63;2.00;;;;;;;;;;5053142;28;20380;-63
2023/04/27 08:33:43;;;;;;;6.55;2.25;;;;;;;;;;5052933;28;20017;-63
2023/04/27 08:36:08;;;;;;;7.22;2.25;;;;;;;;;;5052883;28;20071;-63
2023/04/27 08:38:34;;;;;;;4.85;2.10;;;;;;;;;;5049626;28;20048;-63
2023/04/27 08:41:00;;;;;;;5.15;1.98;;;;;;;;;;5033011;28;20067;-63
2023/04/27 08:43:25;;;;;;;4.95;1.80;;;;;;;;;;5045664;28;20428;-63
2023/04/27 08:45:51;;;;;;;6.10;2.10;;;;;;;;;;5034769;28;20028;-63
2023/04/27 08:48:17;;;;;;;4.38;1.90;;;;;;;;;;5056993;28;20544;-63
2023/04/27 08:50:43;;;;;;;5.97;2.17;;;;;;;;;;5056567;28;20041;-63
2023/04/27 08:53:18;;;;;;;6.28;2.13;;;;;;;;;;5056918;28;20017;-63
2023/04/27 08:55:43;;;;;;;4.60;2.30;;;;;;;;;;5056592;28;20066;-63
2023/04/27 08:58:08;;;;;;;5.65;2.10;;;;;;;;;;5054558;28;20025;-63
2023/04/27 09:00:39;;;;;;;5.32;2.03;;;;;;;;;;5056740;28;20020;-63
2023/04/27 09:03:05;;;;;;;3.72;2.03;;;;;;;;;;5056267;28;20048;-63
2023/04/27 09:05:30;;;;;;;5.03;1.90;;;;;;;;;;5056854;28;20029;-63
2023/04/27 09:08:00;;;;;;;5.28;2.22;;;;;;;;;;5056561;28;20036;-63
2023/04/27 09:10:27;;;;;;;4.68;2.60;;;;;;;;;;5056597;28;20025;-63
2023/04/27 09:12:57;;;;;;;7.78;2.40;;;;;;;;;;5051287;28;20085;-63
2023/04/27 09:15:22;;;;;;;5.07;2.15;;;;;;;;;;5053512;28;20096;-63
2023/04/27 09:17:52;;;;;;;4.28;2.05;;;;;;;;;;5053470;28;20143;-63
2023/04/27 09:20:17;;;;;;;6.25;2.40;;;;;;;;;;5056478;28;20384;-63
2023/04/27 09:22:46;;;;;;;5.82;2.65;;;;;;;;;;5056152;28;20024;-63
2023/04/27 09:25:21;;;;;;;5.80;2.58;;;;;;;;;;5056551;28;20480;-63
2023/04/27 09:27:46;;;;;;;6.22;3.25;;;;;;;;;;5055210;28;20029;-63
2023/04/27 09:30:12;;;;;;;7.38;3.30;;;;;;;;;;5056364;28;20031;-63
2023/04/27 09:32:38;;;;;;;9.38;3.53;;;;;;;;;;5055843;28;20062;-63
2023/04/27 09:35:13;;;;;;;6.85;3.40;;;;;;;;;;5056213;28;20416;-63
2023/04/27 09:37:39;;;;;;;6.60;3.00;;;;;;;;;;5056171;28;20021;-63
2023/04/27 09:40:05;;;;;;;9.57;3.40;;;;;;;;;;5055869;28;20108;-63
2023/04/27 09:42:30;;;;;;;8.63;2.78;;;;;;;;;;5054871;28;20039;-63
2023/04/27 09:44:56;;;;;;;5.95;2.78;;;;;;;;;;5056104;28;20043;-63
2023/04/27 09:47:22;;;;;;;9.23;3.45;;;;;;;;;;5055988;28;20102;-64
2023/04/27 09:49:49;;;;;;;5.75;3.00;;;;;;;;;;5055896;28;20372;-64
2023/04/27 09:52:15;;;;;;;6.97;3.10;;;;;;;;;;5054330;28;20068;-62
2023/04/27 09:54:41;;;;;;;8.32;3.17;;;;;;;;;;5054657;28;20017;-63
2023/04/27 09:57:32;;;;;;;7.05;2.80;;;;;;;;;;5053336;28;20024;-63
2023/04/27 10:00:09;;;;;;;6.20;2.78;;;;;;;;;;5045974;28;20108;-63
2023/04/27 10:02:40;;;;;;;5.28;2.60;;;;;;;;;;5043626;28;20042;-64
2023/04/27 10:05:15;;;;;;;6.45;2.70;;;;;;;;;;5049354;28;20603;-63
2023/04/27 10:07:41;;;;;;;6.55;2.60;;;;;;;;;;5037171;28;20025;-63
2023/04/27 10:10:15;;;;;;;6.75;2.70;;;;;;;;;;5049503;28;20413;-64
2023/04/27 10:12:40;;;;;;;5.88;2.50;;;;;;;;;;5053109;28;20037;-64
2023/04/27 10:15:13;;;;;;;6.53;3.00;;;;;;;;;;5053260;28;20016;-65
2023/04/27 10:17:45;;;;;;;6.55;2.40;;;;;;;;;;5055056;28;20020;-64
2023/04/27 10:20:11;;;;;;;8.10;3.30;;;;;;;;;;5055394;28;20017;-64
2023/04/27 10:22:40;;;;;;;5.28;2.53;;;;;;;;;;5049707;28;20024;-64
2023/04/27 10:25:20;;;;;;;5.95;2.38;;;;;;;;;;5055268;28;20021;-64
2023/04/27 10:27:51;;;;;;;6.05;2.72;;;;;;;;;;5053736;28;20029;-64
2023/04/27 10:30:16;;;;;;;5.93;3.28;;;;;;;;;;5051049;28;20036;-63
2023/04/27 10:32:58;;;;;;;6.47;2.55;;;;;;;;;;5054715;28;20028;-64
2023/04/27 10:35:37;;;;;;;6.25;2.40;;;;;;;;;;5054843;28;20021;-63
2023/04/27 10:38:09;;;;;;;6.18;2.40;;;;;;;;;;5055091;28;20424;-65
2023/04/27 10:40:36;;;;;;;4.35;2.42;;;;;;;;;;5049741;28;20027;-64
2023/04/27 10:43:14;;;;;;;6.95;3.30;;;;;;;;;;5053658;28;20044;-65
2023/04/27 10:45:40;;;;;;;6.53;2.97;;;;;;;;;;5054464;28;20028;-64
2023/04/27 10:48:06;;;;;;;5.82;3.20;;;;;;;;;;5054841;28;20092;-64
2023/04/27 10:50:31;;;;;;;7.40;3.13;;;;;;;;;;5054779;28;20133;-64
2023/04/27 10:53:01;;;;;;;9.02;3.15;;;;;;;;;;5054645;28;20546;-64
2023/04/27 10:55:26;;;;;;;7.47;3.35;;;;;;;;;;5054651;28;20534;-64
2023/04/27 10:57:53;;;;;;;6.80;3.00;;;;;;;;;;5053072;28;20099;-63
2023/04/27 11:00:25;;;;;;;5.07;2.67;;;;;;;;;;5054283;28;20021;-63
2023/04/27 11:02:52;;;;;;;5.80;2.90;;;;;;;;;;5054109;28;20089;-63
2023/04/27 11:05:18;;;;;;;5.80;2.97;;;;;;;;;;5054559;28;20488;-64
2023/04/27 11:07:44;;;;;;;4.88;2.65;;;;;;;;;;5054164;28;20024;-64
2023/04/27 11:10:13;;;;;;;5.75;2.53;;;;;;;;;;5053811;28;20329;-64
2023/04/27 11:12:39;;;;;;;5.30;2.70;;;;;;;;;;5052766;28;20104;-65
2023/04/27 11:15:06;;;;;;;4.90;2.50;;;;;;;;;;5054324;28;20056;-65
2023/04/27 11:17:31;;;;;;;5.80;2.95;;;;;;;;;;5054133;28;20017;-66
2023/04/27 11:19:57;;;;;;;5.20;2.90;;;;;;;;;;5054371;28;20091;-66
2023/04/27 11:22:22;;;;;;;6.03;2.85;;;;;;;;;;5053951;28;20017;-66
2023/04/27 11:24:48;;;;;;;5.10;2.60;;;;;;;;;;5049609;28;20051;-68
2023/04/27 11:27:13;;;;;;;6.32;2.75;;;;;;;;;;5042194;28;20031;-68
2023/04/27 11:29:39;;;;;;;5.18;2.88;;;;;;;;;;5054128;28;20457;-67
2023/04/27 11:32:04;;;;;;;6.85;3.05;;;;;;;;;;5053954;28;20378;-67
2023/04/27 11:34:36;;;;;;;6.10;3.00;;;;;;;;;;5053108;28;20435;-68
2023/04/27 11:37:02;;;;;;;5.85;2.75;;;;;;;;;;5032635;28;20381;-68
2023/04/27 11:39:37;;;;;;;7.28;3.10;;;;;;;;;;5053679;28;20028;-68
2023/04/27 11:42:19;;;;;;;6.53;2.97;;;;;;;;;;5052270;28;20468;-67
2023/04/27 11:44:55;;;;;;;6.68;3.22;;;;;;;;;;5035687;28;20071;-66
2023/04/27 11:47:21;;;;;;;6.00;3.30;;;;;;;;;;5053398;28;20108;-66
2023/04/27 11:49:51;;;;;;;5.82;3.20;;;;;;;;;;5041160;28;20025;-66
2023/04/27 11:52:16;;;;;;;5.72;3.65;;;;;;;;;;5053184;28;20033;-66
2023/04/27 11:54:49;;;;;;;7.95;3.65;;;;;;;;;;5053398;28;20016;-66
2023/04/27 11:57:15;;;;;;;7.95;3.92;;;;;;;;;;5052364;28;20024;-67
2023/04/27 11:59:40;;;;;;;6.82;3.25;;;;;;;;;;5053283;28;20021;-67
2023/04/27 12:02:06;;;;;;;5.47;3.30;;;;;;;;;;5050298;28;20025;-66
2023/04/27 12:04:31;;;;;;;7.15;3.58;;;;;;;;;;5052401;28;20056;-66
2023/04/27 12:06:56;;;;;;;6.05;3.30;;;;;;;;;;5052174;28;20071;-67
2023/04/27 12:09:22;;;;;;;6.40;3.22;;;;;;;;;;5053172;28;20385;-66
2023/04/27 12:11:47;;;;;;;6.20;3.03;;;;;;;;;;5050727;28;20033;-66
2023/04/27 12:14:12;;;;;;;7.25;3.60;;;;;;;;;;5050618;28;20433;-66
2023/04/27 12:16:38;;;;;;;7.75;3.05;;;;;;;;;;5053148;28;20028;-66
2023/04/27 12:19:03;;;;;;;5.20;3.30;;;;;;;;;;5053777;28;20039;-73
2023/04/27 12:21:30;;;;;;;8.25;3.50;;;;;;;;;;5053264;28;20116;-72
2023/04/27 12:23:56;;;;;;;6.45;3.20;;;;;;;;;;5053422;28;20445;-70
2023/04/27 12:26:21;;;;;;;7.63;3.60;;;;;;;;;;5052070;28;20024;-65
2023/04/27 12:28:47;;;;;;;5.63;3.30;;;;;;;;;;5052696;28;20033;-66
2023/04/27 12:31:12;;;;;;;9.77;3.92;;;;;;;;;;5052923;28;20032;-66
2023/04/27 12:33:38;;;;;;;6.38;3.42;;;;;;;;;;5052053;28;20021;-65
2023/04/27 12:36:03;;;;;;;5.57;3.50;;;;;;;;;;5053078;28;20017;-65
2023/04/27 12:38:29;;;;;;;7.97;3.47;;;;;;;;;;5053021;28;20487;-66
2023/04/27 12:40:54;;;;;;;5.88;3.25;;;;;;;;;;5052781;28;20013;-65
2023/04/27 12:43:19;;;;;;;5.65;3.50;;;;;;;;;;5050714;28;20013;-66
2023/04/27 12:45:45;;;;;;;7.03;3.47;;;;;;;;;;5052806;28;20526;-65
2023/04/27 12:48:10;;;;;;;6.22;3.15;;;;;;;;;;5052628;28;20029;-71
2023/04/27 12:50:36;;;;;;;5.70;3.17;;;;;;;;;;5053214;28;20071;-71
2023/04/27 12:53:02;;;;;;;5.40;3.30;;;;;;;;;;5053367;28;20048;-73
2023/04/27 12:55:28;;;;;;;6.50;3.20;;;;;;;;;;5054469;28;20028;-73
2023/04/27 12:57:53;;;;;;;5.20;3.13;;;;;;;;;;5053387;28;20021;-73
2023/04/27 13:00:19;;;;;;;5.10;3.13;;;;;;;;;;5053589;28;20066;-72
2023/04/27 13:02:45;;;;;;;6.65;3.53;;;;;;;;;;5052933;28;20056;-72
2023/04/27 13:05:10;;;;;;;6.22;3.40;;;;;;;;;;5053606;28;20025;-73
2023/04/27 13:07:36;;;;;;;5.57;3.33;;;;;;;;;;5053720;28;20389;-73
2023/04/27 13:10:02;;;;;;;7.43;3.20;;;;;;;;;;5053620;28;20032;-74
2023/04/27 13:12:27;;;;;;;7.40;3.47;;;;;;;;;;5051142;28;20033;-73
2023/04/27 13:14:53;;;;;;;7.85;3.30;;;;;;;;;;5053176;28;20025;-72
2023/04/27 13:17:18;;;;;;;6.85;3.50;;;;;;;;;;5053351;28;20017;-73
2023/04/27 13:19:43;;;;;;;4.60;2.95;;;;;;;;;;5053124;28;20384;-72
2023/04/27 13:22:09;;;;;;;6.20;3.70;;;;;;;;;;5053517;28;20048;-74
2023/04/27 13:24:35;;;;;;;5.90;3.35;;;;;;;;;;5053513;28;20048;-73
2023/04/27 13:27:00;;;;;;;8.20;3.17;;;;;;;;;;5042508;28;20022;-72
2023/04/27 13:29:26;;;;;;;6.82;3.35;;;;;;;;;;5033383;28;20044;-74
2023/04/27 13:31:51;;;;;;;5.93;3.30;;;;;;;;;;5042326;28;20017;-76
2023/04/27 13:34:17;;;;;;;6.90;3.28;;;;;;;;;;5056645;28;20021;-76
2023/04/27 13:36:43;;;;;;;7.53;3.35;;;;;;;;;;5056396;28;20021;-75
2023/04/27 13:39:08;;;;;;;5.80;3.10;;;;;;;;;;5056273;28;20028;-75
2023/04/27 13:41:34;;;;;;;4.78;2.90;;;;;;;;;;5054981;28;20397;-73
2023/04/27 13:44:00;;;;;;;6.03;3.25;;;;;;;;;;5056512;28;20399;-75
2023/04/27 13:46:25;;;;;;;5.75;3.35;;;;;;;;;;5056308;28;20021;-74
2023/04/27 13:48:51;;;;;;;6.00;3.50;;;;;;;;;;5056346;28;20017;-74
2023/04/27 13:51:16;;;;;;;6.65;3.45;;;;;;;;;;5056086;28;20025;-74
2023/04/27 13:53:41;;;;;;;6.38;3.17;;;;;;;;;;5055229;28;20028;-74
2023/04/27 13:56:07;;;;;;;6.40;3.30;;;;;;;;;;5054549;28;20078;-74
2023/04/27 13:58:32;;;;;;;5.82;3.40;;;;;;;;;;5055483;28;20017;-73
2023/04/27 14:00:57;;;;;;;9.80;3.58;;;;;;;;;;5055737;28;20096;-73
2023/04/27 14:03:23;;;;;;;7.20;3.42;;;;;;;;;;5055742;28;20450;-73
2023/04/27 14:05:50;;;;;;;6.53;3.80;;;;;;;;;;5056221;28;20043;-73
2023/04/27 14:08:15;;;;;;;5.55;3.50;;;;;;;;;;5055630;28;20155;-73
2023/04/27 14:10:40;;;;;;;7.75;3.80;;;;;;;;;;5054677;28;20441;-74
2023/04/27 14:13:06;;;;;;;9.32;3.90;;;;;;;;;;5055763;28;20195;-74
2023/04/27 14:15:35;;;;;;;11.57;4.22;;;;;;;;;;5038391;28;20044;-72
2023/04/27 14:18:01;;;;;;;8.10;4.10;;;;;;;;;;5055740;28;20017;-73
2023/04/27 14:20:26;;;;;;;6.53;4.10;;;;;;;;;;5054888;28;20499;-73
2023/04/27 14:22:52;;;;;;;9.75;3.90;;;;;;;;;;5056322;28;20035;-75
2023/04/27 14:25:17;;;;;;;6.03;4.28;;;;;;;;;;5054496;28;20032;-75
2023/04/27 14:27:42;;;;;;;10.73;4.70;;;;;;;;;;5055699;28;20096;-77